Whitehall, Michigan
Current Conditions -  °F | °C
As of 12:55 PM on Tuesday 21 Oct 2014 (Local Time) from KMKG Reporting Station
Overcast Overcast  
Wind Chill: 50°   Ceiling: 3000
Heat Index: 50°   Visibility: 10mi
Dew Point: 36°   Wind: 14mph
Humidity: 59%   Direction: 360°N
Pressure: 30.16"   Gusts: 22mph
Location:  43.41°N, 86.35°W
Report Text: KMKG 211655Z 36012G19KT 10SM OVC030 10/02 A3016 RMK AO2 SLP218 T01000022
Loading
Personal Weather Stations






























Interactive Weather Map New forecast layout! Learn more

10-Day Weather Forecast

Advertisements
Track Severe Weather on mobile